sensor_id;sensor_type;location;lat;lon;timestamp;pressure;altitude;pressure_sealevel;temperature;humidity
64076;BME280;50327;51.328;12.324;2022-07-15T00:01:54;53223.56;;;-144.47;47.29
64076;BME280;50327;51.328;12.324;2022-07-15T00:04:20;53209.66;;;-144.47;47.37
64076;BME280;50327;51.328;12.324;2022-07-15T00:06:45;53223.56;;;-144.47;47.51
64076;BME280;50327;51.328;12.324;2022-07-15T00:09:11;53217.59;;;-144.47;47.52
64076;BME280;50327;51.328;12.324;2022-07-15T00:11:36;53215.59;;;-144.47;47.62
64076;BME280;50327;51.328;12.324;2022-07-15T00:14:01;53219.56;;;-144.47;47.80
64076;BME280;50327;51.328;12.324;2022-07-15T00:16:27;53193.75;;;-144.47;47.83
64076;BME280;50327;51.328;12.324;2022-07-15T00:18:52;53221.56;;;-144.47;48.13
64076;BME280;50327;51.328;12.324;2022-07-15T00:21:17;53203.69;;;-144.47;48.28
64076;BME280;50327;51.328;12.324;2022-07-15T00:23:43;53237.44;;;-144.47;48.69
64076;BME280;50327;51.328;12.324;2022-07-15T00:26:08;53201.69;;;-144.47;48.80
64076;BME280;50327;51.328;12.324;2022-07-15T00:28:34;53229.50;;;-144.47;48.86
64076;BME280;50327;51.328;12.324;2022-07-15T00:30:59;53277.19;;;-144.47;49.07
64076;BME280;50327;51.328;12.324;2022-07-15T00:33:24;53239.44;;;-144.47;49.22
64076;BME280;50327;51.328;12.324;2022-07-15T00:35:50;53193.75;;;-144.47;49.17
64076;BME280;50327;51.328;12.324;2022-07-15T00:38:16;53215.59;;;-144.47;49.26
64076;BME280;50327;51.328;12.324;2022-07-15T00:40:46;53225.53;;;-144.47;49.26
64076;BME280;50327;51.328;12.324;2022-07-15T00:43:12;53193.75;;;-144.47;49.33
64076;BME280;50327;51.328;12.324;2022-07-15T00:45:38;53245.41;;;-144.47;49.54
64076;BME280;50327;51.328;12.324;2022-07-15T00:48:04;53213.63;;;-144.47;49.33
64076;BME280;50327;51.328;12.324;2022-07-15T00:50:30;53241.44;;;-144.47;49.50
64076;BME280;50327;51.328;12.324;2022-07-15T00:53:08;53237.44;;;-144.47;49.28
64076;BME280;50327;51.328;12.324;2022-07-15T00:55:43;53203.69;;;-144.47;49.40
64076;BME280;50327;51.328;12.324;2022-07-15T00:58:14;53233.47;;;-144.47;49.42
64076;BME280;50327;51.328;12.324;2022-07-15T01:00:42;53213.63;;;-144.47;49.61
64076;BME280;50327;51.328;12.324;2022-07-15T01:03:07;53239.44;;;-144.47;49.71
64076;BME280;50327;51.328;12.324;2022-07-15T01:05:33;53213.63;;;-144.47;49.83
64076;BME280;50327;51.328;12.324;2022-07-15T01:07:58;53219.56;;;-144.47;50.09
64076;BME280;50327;51.328;12.324;2022-07-15T01:10:25;53227.53;;;-144.47;50.13
64076;BME280;50327;51.328;12.324;2022-07-15T01:12:51;53201.69;;;-144.47;50.08
64076;BME280;50327;51.328;12.324;2022-07-15T01:15:17;53287.13;;;-144.47;50.27
64076;BME280;50327;51.328;12.324;2022-07-15T01:17:44;53209.66;;;-144.47;50.31
64076;BME280;50327;51.328;12.324;2022-07-15T01:20:12;53233.47;;;-144.47;50.29
64076;BME280;50327;51.328;12.324;2022-07-15T01:22:38;53223.56;;;-144.47;50.47
64076;BME280;50327;51.328;12.324;2022-07-15T01:25:03;53219.56;;;-144.47;50.40
64076;BME280;50327;51.328;12.324;2022-07-15T01:27:29;53201.69;;;-144.47;50.59
64076;BME280;50327;51.328;12.324;2022-07-15T01:29:54;53209.66;;;-144.47;50.53
64076;BME280;50327;51.328;12.324;2022-07-15T01:32:20;53211.63;;;-144.47;50.64
64076;BME280;50327;51.328;12.324;2022-07-15T01:34:45;53225.53;;;-144.47;50.89
64076;BME280;50327;51.328;12.324;2022-07-15T01:37:14;53195.75;;;-144.47;50.92
64076;BME280;50327;51.328;12.324;2022-07-15T01:39:40;53253.34;;;-144.47;51.28
64076;BME280;50327;51.328;12.324;2022-07-15T01:42:05;53235.47;;;-144.47;51.27
64076;BME280;50327;51.328;12.324;2022-07-15T01:44:30;53241.44;;;-144.47;51.49
64076;BME280;50327;51.328;12.324;2022-07-15T01:46:56;53219.56;;;-144.47;51.59
64076;BME280;50327;51.328;12.324;2022-07-15T01:49:21;53183.81;;;-144.47;51.77
64076;BME280;50327;51.328;12.324;2022-07-15T01:51:47;53249.38;;;-144.47;51.97
64076;BME280;50327;51.328;12.324;2022-07-15T01:54:13;53223.56;;;-144.47;51.99
64076;BME280;50327;51.328;12.324;2022-07-15T01:56:38;53217.59;;;-144.47;52.21
64076;BME280;50327;51.328;12.324;2022-07-15T01:59:03;53229.50;;;-144.47;52.44
64076;BME280;50327;51.328;12.324;2022-07-15T02:01:29;53273.22;;;-144.47;52.77
64076;BME280;50327;51.328;12.324;2022-07-15T02:03:54;53253.34;;;-144.47;52.76
64076;BME280;50327;51.328;12.324;2022-07-15T02:06:20;53241.44;;;-144.47;52.86
64076;BME280;50327;51.328;12.324;2022-07-15T02:08:45;53239.44;;;-144.47;53.00
64076;BME280;50327;51.328;12.324;2022-07-15T02:11:10;53235.47;;;-144.47;53.17
64076;BME280;50327;51.328;12.324;2022-07-15T02:13:36;53215.59;;;-144.47;53.15
64076;BME280;50327;51.328;12.324;2022-07-15T02:16:01;53308.97;;;-144.47;53.18
64076;BME280;50327;51.328;12.324;2022-07-15T02:18:27;53271.22;;;-144.47;53.31
64076;BME280;50327;51.328;12.324;2022-07-15T02:20:52;53229.50;;;-144.47;53.47
64076;BME280;50327;51.328;12.324;2022-07-15T02:23:18;53249.38;;;-144.47;53.53
64076;BME280;50327;51.328;12.324;2022-07-15T02:25:43;53263.28;;;-144.47;53.79
64076;BME280;50327;51.328;12.324;2022-07-15T02:28:09;53239.44;;;-144.47;53.93
64076;BME280;50327;51.328;12.324;2022-07-15T02:30:37;53273.22;;;-144.47;54.23
64076;BME280;50327;51.328;12.324;2022-07-15T02:33:03;53269.22;;;-144.47;54.38
64076;BME280;50327;51.328;12.324;2022-07-15T02:35:29;53241.44;;;-144.47;54.68
64076;BME280;50327;51.328;12.324;2022-07-15T02:37:55;53235.47;;;-144.47;54.92
64076;BME280;50327;51.328;12.324;2022-07-15T02:40:21;53207.66;;;-144.47;54.94
64076;BME280;50327;51.328;12.324;2022-07-15T02:42:51;53253.34;;;-144.47;55.48
64076;BME280;50327;51.328;12.324;2022-07-15T02:45:21;53259.31;;;-144.47;55.57
64076;BME280;50327;51.328;12.324;2022-07-15T02:47:47;53239.44;;;-144.47;55.84
64076;BME280;50327;51.328;12.324;2022-07-15T02:50:14;53227.53;;;-144.47;56.04
64076;BME280;50327;51.328;12.324;2022-07-15T02:52:39;53231.50;;;-144.47;56.42
64076;BME280;50327;51.328;12.324;2022-07-15T02:55:05;53229.50;;;-144.47;56.67
64076;BME280;50327;51.328;12.324;2022-07-15T02:57:31;53261.28;;;-144.47;56.93
64076;BME280;50327;51.328;12.324;2022-07-15T02:59:56;53243.41;;;-144.47;57.44
64076;BME280;50327;51.328;12.324;2022-07-15T03:02:22;53279.16;;;-144.47;57.58
64076;BME280;50327;51.328;12.324;2022-07-15T03:04:47;53261.28;;;-144.47;57.75
64076;BME280;50327;51.328;12.324;2022-07-15T03:09:49;53263.28;;;-144.47;58.17
64076;BME280;50327;51.328;12.324;2022-07-15T03:12:14;53239.44;;;-144.47;57.98
64076;BME280;50327;51.328;12.324;2022-07-15T03:14:39;53247.38;;;-144.47;58.23
64076;BME280;50327;51.328;12.324;2022-07-15T03:17:05;53283.13;;;-144.47;58.22
64076;BME280;50327;51.328;12.324;2022-07-15T03:19:31;53251.34;;;-144.47;58.58
64076;BME280;50327;51.328;12.324;2022-07-15T03:21:56;53269.22;;;-144.47;58.50
64076;BME280;50327;51.328;12.324;2022-07-15T03:24:22;53243.41;;;-144.47;58.71
64076;BME280;50327;51.328;12.324;2022-07-15T03:26:47;53275.19;;;-144.47;58.75
64076;BME280;50327;51.328;12.324;2022-07-15T03:29:13;53257.31;;;-144.47;58.85
64076;BME280;50327;51.328;12.324;2022-07-15T03:31:41;53289.09;;;-144.47;59.12
64076;BME280;50327;51.328;12.324;2022-07-15T03:34:07;53285.13;;;-144.47;59.03
64076;BME280;50327;51.328;12.324;2022-07-15T03:36:32;53279.16;;;-144.47;59.26
64076;BME280;50327;51.328;12.324;2022-07-15T03:38:58;53275.19;;;-144.47;59.61
64076;BME280;50327;51.328;12.324;2022-07-15T03:41:23;53263.28;;;-144.47;59.89
64076;BME280;50327;51.328;12.324;2022-07-15T03:43:48;53263.28;;;-144.47;59.84
64076;BME280;50327;51.328;12.324;2022-07-15T03:46:14;53269.22;;;-144.47;59.68
64076;BME280;50327;51.328;12.324;2022-07-15T03:48:40;53273.22;;;-144.47;59.94
64076;BME280;50327;51.328;12.324;2022-07-15T03:51:05;53273.22;;;-144.47;59.89
64076;BME280;50327;51.328;12.324;2022-07-15T03:53:31;53281.16;;;-144.47;60.06
64076;BME280;50327;51.328;12.324;2022-07-15T03:55:57;53253.34;;;-144.47;60.59
64076;BME280;50327;51.328;12.324;2022-07-15T03:58:22;53289.09;;;-144.47;60.49
64076;BME280;50327;51.328;12.324;2022-07-15T04:00:47;53283.13;;;-144.47;60.37
64076;BME280;50327;51.328;12.324;2022-07-15T04:03:13;53305.00;;;-144.47;60.38
64076;BME280;50327;51.328;12.324;2022-07-15T04:05:41;53265.25;;;-144.47;60.08
64076;BME280;50327;51.328;12.324;2022-07-15T04:08:06;53273.22;;;-144.47;59.94
64076;BME280;50327;51.328;12.324;2022-07-15T04:10:32;53293.06;;;-144.47;59.95
64076;BME280;50327;51.328;12.324;2022-07-15T04:12:57;53265.25;;;-144.47;59.87
64076;BME280;50327;51.328;12.324;2022-07-15T04:15:23;53251.34;;;-144.47;59.45
64076;BME280;50327;51.328;12.324;2022-07-15T04:17:48;53271.22;;;-144.47;59.26
64076;BME280;50327;51.328;12.324;2022-07-15T04:20:14;53273.22;;;-144.47;59.05
64076;BME280;50327;51.328;12.324;2022-07-15T04:22:43;53259.31;;;-144.47;58.23
64076;BME280;50327;51.328;12.324;2022-07-15T04:25:11;53291.09;;;-144.47;58.09
64076;BME280;50327;51.328;12.324;2022-07-15T04:27:37;53273.22;;;-144.47;58.16
64076;BME280;50327;51.328;12.324;2022-07-15T04:30:06;53261.28;;;-144.47;58.04
64076;BME280;50327;51.328;12.324;2022-07-15T04:32:31;53249.38;;;-144.47;58.14
64076;BME280;50327;51.328;12.324;2022-07-15T04:34:57;53239.44;;;-144.47;57.98
64076;BME280;50327;51.328;12.324;2022-07-15T04:37:23;53277.19;;;-144.47;57.88
64076;BME280;50327;51.328;12.324;2022-07-15T04:39:48;53239.44;;;-144.47;58.11
64076;BME280;50327;51.328;12.324;2022-07-15T04:42:14;53251.34;;;-144.47;57.67
64076;BME280;50327;51.328;12.324;2022-07-15T04:44:40;53275.19;;;-144.47;57.68
64076;BME280;50327;51.328;12.324;2022-07-15T04:47:05;53221.56;;;-144.47;57.43
64076;BME280;50327;51.328;12.324;2022-07-15T04:49:30;53235.47;;;-144.47;57.07
64076;BME280;50327;51.328;12.324;2022-07-15T04:52:15;53261.28;;;-144.47;57.34
64076;BME280;50327;51.328;12.324;2022-07-15T04:54:40;53215.59;;;-144.47;57.03
64076;BME280;50327;51.328;12.324;2022-07-15T04:57:06;53243.41;;;-144.47;56.77
64076;BME280;50327;51.328;12.324;2022-07-15T04:59:31;53229.50;;;-144.47;57.09
64076;BME280;50327;51.328;12.324;2022-07-15T05:01:58;53259.31;;;-144.47;56.76
64076;BME280;50327;51.328;12.324;2022-07-15T05:04:24;53227.53;;;-144.47;56.58
64076;BME280;50327;51.328;12.324;2022-07-15T05:06:49;53297.03;;;-144.47;56.94
64076;BME280;50327;51.328;12.324;2022-07-15T05:09:15;53267.25;;;-144.47;56.67
64076;BME280;50327;51.328;12.324;2022-07-15T05:11:40;53245.41;;;-144.47;56.72
64076;BME280;50327;51.328;12.324;2022-07-15T05:14:06;53231.50;;;-144.47;56.52
64076;BME280;50327;51.328;12.324;2022-07-15T05:16:31;53257.31;;;-144.47;56.17
64076;BME280;50327;51.328;12.324;2022-07-15T05:18:57;53269.22;;;-144.47;56.42
64076;BME280;50327;51.328;12.324;2022-07-15T05:21:22;53233.47;;;-144.47;56.44
64076;BME280;50327;51.328;12.324;2022-07-15T05:23:48;53225.53;;;-144.47;56.29
64076;BME280;50327;51.328;12.324;2022-07-15T05:26:13;53265.25;;;-144.47;56.39
64076;BME280;50327;51.328;12.324;2022-07-15T05:28:38;53217.59;;;-144.47;56.20
64076;BME280;50327;51.328;12.324;2022-07-15T05:31:05;53203.69;;;-144.47;56.54
64076;BME280;50327;51.328;12.324;2022-07-15T05:33:30;53245.41;;;-144.47;56.39
64076;BME280;50327;51.328;12.324;2022-07-15T05:35:56;53235.47;;;-144.47;56.34
64076;BME280;50327;51.328;12.324;2022-07-15T05:38:22;53241.44;;;-144.47;56.02
64076;BME280;50327;51.328;12.324;2022-07-15T05:40:48;53209.66;;;-144.47;56.24
64076;BME280;50327;51.328;12.324;2022-07-15T05:43:13;53251.34;;;-144.47;55.86
64076;BME280;50327;51.328;12.324;2022-07-15T05:45:39;53259.31;;;-144.47;55.74
64076;BME280;50327;51.328;12.324;2022-07-15T05:48:04;53237.44;;;-144.47;55.55
64076;BME280;50327;51.328;12.324;2022-07-15T05:50:30;53271.22;;;-144.47;55.32
64076;BME280;50327;51.328;12.324;2022-07-15T05:52:55;53247.38;;;-144.47;55.14
64076;BME280;50327;51.328;12.324;2022-07-15T05:55:21;53231.50;;;-144.47;54.90
64076;BME280;50327;51.328;12.324;2022-07-15T05:57:46;53223.56;;;-144.47;54.83
64076;BME280;50327;51.328;12.324;2022-07-15T06:00:13;53229.50;;;-144.47;54.84
64076;BME280;50327;51.328;12.324;2022-07-15T06:02:39;53209.66;;;-144.47;54.67
64076;BME280;50327;51.328;12.324;2022-07-15T06:05:04;53249.38;;;-144.47;54.45
64076;BME280;50327;51.328;12.324;2022-07-15T06:07:30;53237.44;;;-144.47;54.60
64076;BME280;50327;51.328;12.324;2022-07-15T06:09:55;53221.56;;;-144.47;54.43
64076;BME280;50327;51.328;12.324;2022-07-15T06:12:21;53219.56;;;-144.47;54.08
64076;BME280;50327;51.328;12.324;2022-07-15T06:14:46;53201.69;;;-144.47;54.01
64076;BME280;50327;51.328;12.324;2022-07-15T06:17:11;53265.25;;;-144.47;54.12
64076;BME280;50327;51.328;12.324;2022-07-15T06:19:37;53231.50;;;-144.47;53.63
64076;BME280;50327;51.328;12.324;2022-07-15T06:22:03;53253.34;;;-144.47;53.22
64076;BME280;50327;51.328;12.324;2022-07-15T06:24:28;53233.47;;;-144.47;53.31
64076;BME280;50327;51.328;12.324;2022-07-15T06:26:54;53209.66;;;-144.47;52.71
64076;BME280;50327;51.328;12.324;2022-07-15T06:29:20;53235.47;;;-144.47;52.46
64076;BME280;50327;51.328;12.324;2022-07-15T06:31:46;53261.28;;;-144.47;52.44
64076;BME280;50327;51.328;12.324;2022-07-15T06:34:11;53229.50;;;-144.47;52.78
64076;BME280;50327;51.328;12.324;2022-07-15T06:36:37;53227.53;;;-144.47;51.85
64076;BME280;50327;51.328;12.324;2022-07-15T06:39:03;53253.34;;;-144.47;51.69
64076;BME280;50327;51.328;12.324;2022-07-15T06:41:29;53233.47;;;-144.47;51.94
64076;BME280;50327;51.328;12.324;2022-07-15T06:43:54;53237.44;;;-144.47;51.72
64076;BME280;50327;51.328;12.324;2022-07-15T06:46:20;53225.53;;;-144.47;51.67
64076;BME280;50327;51.328;12.324;2022-07-15T06:48:45;53285.13;;;-144.47;52.02
64076;BME280;50327;51.328;12.324;2022-07-15T06:51:11;53245.41;;;-144.47;51.34
64076;BME280;50327;51.328;12.324;2022-07-15T06:53:36;53221.56;;;-144.47;51.40
64076;BME280;50327;51.328;12.324;2022-07-15T06:56:02;53219.56;;;-144.47;51.40
64076;BME280;50327;51.328;12.324;2022-07-15T06:58:28;53259.31;;;-144.47;50.58
64076;BME280;50327;51.328;12.324;2022-07-15T07:00:54;53195.75;;;-144.47;50.35
64076;BME280;50327;51.328;12.324;2022-07-15T07:03:19;53209.66;;;-144.47;50.76
64076;BME280;50327;51.328;12.324;2022-07-15T07:05:44;53209.66;;;-144.47;49.75
64076;BME280;50327;51.328;12.324;2022-07-15T07:08:10;53263.28;;;-144.47;49.87
64076;BME280;50327;51.328;12.324;2022-07-15T07:10:35;53229.50;;;-144.47;49.74
64076;BME280;50327;51.328;12.324;2022-07-15T07:13:01;53217.59;;;-144.47;49.27
64076;BME280;50327;51.328;12.324;2022-07-15T07:15:26;53231.50;;;-144.47;49.75
64076;BME280;50327;51.328;12.324;2022-07-15T07:17:51;53217.59;;;-144.47;49.27
64076;BME280;50327;51.328;12.324;2022-07-15T07:20:18;53211.63;;;-144.47;49.03
64076;BME280;50327;51.328;12.324;2022-07-15T07:22:43;53203.69;;;-144.47;47.89
64076;BME280;50327;51.328;12.324;2022-07-15T07:25:09;53173.88;;;-144.47;47.62
64076;BME280;50327;51.328;12.324;2022-07-15T07:27:34;53219.56;;;-144.47;47.17
64076;BME280;50327;51.328;12.324;2022-07-15T07:30:00;53195.75;;;-144.47;47.17
64076;BME280;50327;51.328;12.324;2022-07-15T07:32:28;53189.78;;;-144.47;47.12
64076;BME280;50327;51.328;12.324;2022-07-15T07:34:53;53229.50;;;-144.47;46.83
64076;BME280;50327;51.328;12.324;2022-07-15T07:37:18;53185.81;;;-144.47;47.21
64076;BME280;50327;51.328;12.324;2022-07-15T07:39:44;53197.72;;;-144.47;47.62
64076;BME280;50327;51.328;12.324;2022-07-15T07:42:09;53215.59;;;-144.47;47.33
64076;BME280;50327;51.328;12.324;2022-07-15T07:44:35;53223.56;;;-144.47;47.36
64076;BME280;50327;51.328;12.324;2022-07-15T07:47:01;53175.88;;;-144.47;47.48
64076;BME280;50327;51.328;12.324;2022-07-15T07:49:27;53205.66;;;-144.47;46.88
64076;BME280;50327;51.328;12.324;2022-07-15T07:51:52;53201.69;;;-144.47;46.66
64076;BME280;50327;51.328;12.324;2022-07-15T07:54:17;53160.00;;;-144.47;46.09
64076;BME280;50327;51.328;12.324;2022-07-15T07:56:43;53219.56;;;-144.47;45.35
64076;BME280;50327;51.328;12.324;2022-07-15T07:59:10;53189.78;;;-144.47;45.26
64076;BME280;50327;51.328;12.324;2022-07-15T08:01:36;53122.25;;;-144.47;44.68
64076;BME280;50327;51.328;12.324;2022-07-15T08:04:01;53191.78;;;-144.47;43.87
64076;BME280;50327;51.328;12.324;2022-07-15T08:06:27;53161.97;;;-144.47;43.03
64076;BME280;50327;51.328;12.324;2022-07-15T08:08:52;53185.81;;;-144.47;42.38
64076;BME280;50327;51.328;12.324;2022-07-15T08:11:18;53167.94;;;-144.47;42.62
64076;BME280;50327;51.328;12.324;2022-07-15T08:13:45;53148.06;;;-144.47;40.20
64076;BME280;50327;51.328;12.324;2022-07-15T08:16:10;53156.00;;;-144.47;39.48
64076;BME280;50327;51.328;12.324;2022-07-15T08:18:36;53191.78;;;-144.47;38.27
64076;BME280;50327;51.328;12.324;2022-07-15T08:21:02;53154.03;;;-144.47;37.50
64076;BME280;50327;51.328;12.324;2022-07-15T08:23:29;53146.09;;;-144.47;38.27
64076;BME280;50327;51.328;12.324;2022-07-15T08:25:56;53167.94;;;-144.47;39.32
64076;BME280;50327;51.328;12.324;2022-07-15T08:28:22;53171.91;;;-144.47;38.94
64076;BME280;50327;51.328;12.324;2022-07-15T08:30:47;53169.91;;;-144.47;38.94
64076;BME280;50327;51.328;12.324;2022-07-15T08:33:13;53165.94;;;-144.47;36.77
64076;BME280;50327;51.328;12.324;2022-07-15T08:35:39;53175.88;;;-144.47;36.72
64076;BME280;50327;51.328;12.324;2022-07-15T08:38:07;53126.22;;;-144.47;36.51
64076;BME280;50327;51.328;12.324;2022-07-15T08:40:34;53177.88;;;-144.47;36.22
64076;BME280;50327;51.328;12.324;2022-07-15T08:42:59;53193.75;;;-144.47;36.41
64076;BME280;50327;51.328;12.324;2022-07-15T08:45:25;53160.00;;;-144.47;35.78
64076;BME280;50327;51.328;12.324;2022-07-15T08:47:52;53144.09;;;-144.47;36.13
64076;BME280;50327;51.328;12.324;2022-07-15T08:50:18;53132.19;;;-144.47;35.71
64076;BME280;50327;51.328;12.324;2022-07-15T08:52:45;53142.09;;;-144.47;35.30
64076;BME280;50327;51.328;12.324;2022-07-15T08:55:12;53142.09;;;-144.47;35.86
64076;BME280;50327;51.328;12.324;2022-07-15T08:57:38;53144.09;;;-144.47;35.93
64076;BME280;50327;51.328;12.324;2022-07-15T09:00:04;53106.34;;;-144.47;35.80
64076;BME280;50327;51.328;12.324;2022-07-15T09:02:35;53120.25;;;-144.47;35.59
64076;BME280;50327;51.328;12.324;2022-07-15T09:10:21;53152.03;;;-144.47;34.80
64076;BME280;50327;51.328;12.324;2022-07-15T09:12:51;53124.22;;;-144.47;34.99
64076;BME280;50327;51.328;12.324;2022-07-15T09:15:30;53179.84;;;-144.47;35.41
64076;BME280;50327;51.328;12.324;2022-07-15T09:18:29;53150.06;;;-144.47;35.27
64076;BME280;50327;51.328;12.324;2022-07-15T09:20:56;53130.19;;;-144.47;35.44
64076;BME280;50327;51.328;12.324;2022-07-15T09:23:24;53134.16;;;-144.47;35.78
64076;BME280;50327;51.328;12.324;2022-07-15T09:25:58;53148.06;;;-144.47;35.27
64076;BME280;50327;51.328;12.324;2022-07-15T09:28:35;53167.94;;;-144.47;35.09
64076;BME280;50327;51.328;12.324;2022-07-15T09:31:01;53122.25;;;-144.47;35.11
64076;BME280;50327;51.328;12.324;2022-07-15T09:33:45;53146.09;;;-144.47;34.72
64076;BME280;50327;51.328;12.324;2022-07-15T09:36:22;53140.13;;;-144.47;34.32
64076;BME280;50327;51.328;12.324;2022-07-15T09:39:04;53120.25;;;-144.47;34.38
64076;BME280;50327;51.328;12.324;2022-07-15T09:41:36;53150.06;;;-144.47;34.77
64076;BME280;50327;51.328;12.324;2022-07-15T09:49:11;53136.16;;;-144.47;33.78
64076;BME280;50327;51.328;12.324;2022-07-15T09:51:45;53126.22;;;-144.47;34.21
64076;BME280;50327;51.328;12.324;2022-07-15T09:54:11;53108.34;;;-144.47;34.37
64076;BME280;50327;51.328;12.324;2022-07-15T09:56:38;53130.19;;;-144.47;34.97
64076;BME280;50327;51.328;12.324;2022-07-15T09:59:03;53118.28;;;-144.47;34.57
64076;BME280;50327;51.328;12.324;2022-07-15T10:01:29;53122.25;;;-144.47;34.46
64076;BME280;50327;51.328;12.324;2022-07-15T10:03:56;53142.09;;;-144.47;34.35
64076;BME280;50327;51.328;12.324;2022-07-15T10:06:25;53138.13;;;-144.47;34.46
64076;BME280;50327;51.328;12.324;2022-07-15T10:08:52;53106.34;;;-144.47;34.24
64076;BME280;50327;51.328;12.324;2022-07-15T10:11:19;53156.00;;;-144.47;34.13
64076;BME280;50327;51.328;12.324;2022-07-15T10:24:57;53142.09;;;-144.47;33.30
64076;BME280;50327;51.328;12.324;2022-07-15T10:27:55;53122.25;;;-144.47;33.17
64076;BME280;50327;51.328;12.324;2022-07-15T10:30:23;53136.16;;;-144.47;33.65
64076;BME280;50327;51.328;12.324;2022-07-15T10:33:10;53126.22;;;-144.47;33.53
64076;BME280;50327;51.328;12.324;2022-07-15T10:38:29;53142.09;;;-144.47;32.90
64076;BME280;50327;51.328;12.324;2022-07-15T10:40:56;53118.28;;;-144.47;33.16
64076;BME280;50327;51.328;12.324;2022-07-15T10:46:18;53130.19;;;-144.47;33.00
64076;BME280;50327;51.328;12.324;2022-07-15T10:51:13;53142.09;;;-144.47;33.66
64076;BME280;50327;51.328;12.324;2022-07-15T10:53:58;53120.25;;;-144.47;33.50
64076;BME280;50327;51.328;12.324;2022-07-15T11:01:37;53122.25;;;-144.47;33.24
64076;BME280;50327;51.328;12.324;2022-07-15T11:04:25;53142.09;;;-144.47;33.40
64076;BME280;50327;51.328;12.324;2022-07-15T11:14:56;53114.31;;;-144.47;32.23
64076;BME280;50327;51.328;12.324;2022-07-15T11:19:53;53118.28;;;-144.47;32.43
64076;BME280;50327;51.328;12.324;2022-07-15T11:22:19;53118.28;;;-144.47;32.90
64076;BME280;50327;51.328;12.324;2022-07-15T11:24:45;53112.31;;;-144.47;33.01
64076;BME280;50327;51.328;12.324;2022-07-15T11:27:11;53138.13;;;-144.47;33.11
64076;BME280;50327;51.328;12.324;2022-07-15T11:29:45;53148.06;;;-144.47;33.05
64076;BME280;50327;51.328;12.324;2022-07-15T11:32:12;53116.28;;;-144.47;32.83
64076;BME280;50327;51.328;12.324;2022-07-15T11:34:46;53100.41;;;-144.47;32.23
64076;BME280;50327;51.328;12.324;2022-07-15T11:37:13;53108.34;;;-144.47;32.51
64076;BME280;50327;51.328;12.324;2022-07-15T11:39:50;53094.44;;;-144.47;32.68
64076;BME280;50327;51.328;12.324;2022-07-15T11:42:31;53072.59;;;-144.47;32.56
64076;BME280;50327;51.328;12.324;2022-07-15T11:45:15;53100.41;;;-144.47;32.13
64076;BME280;50327;51.328;12.324;2022-07-15T11:47:52;53106.34;;;-144.47;32.23
64076;BME280;50327;51.328;12.324;2022-07-15T11:50:17;53122.25;;;-144.47;32.73
64076;BME280;50327;51.328;12.324;2022-07-15T11:52:44;53118.28;;;-144.47;32.86
64076;BME280;50327;51.328;12.324;2022-07-15T11:55:10;53110.31;;;-144.47;33.10
64076;BME280;50327;51.328;12.324;2022-07-15T11:57:36;53104.38;;;-144.47;32.84
64076;BME280;50327;51.328;12.324;2022-07-15T12:00:02;53106.34;;;-144.47;32.11
64076;BME280;50327;51.328;12.324;2022-07-15T12:02:28;53158.00;;;-144.47;32.67
64076;BME280;50327;51.328;12.324;2022-07-15T12:05:05;53112.31;;;-144.47;32.63
64076;BME280;50327;51.328;12.324;2022-07-15T12:10:06;53120.25;;;-144.47;31.93
64076;BME280;50327;51.328;12.324;2022-07-15T12:12:32;53130.19;;;-144.47;31.88
64076;BME280;50327;51.328;12.324;2022-07-15T12:14:57;53150.06;;;-144.47;31.61
64076;BME280;50327;51.328;12.324;2022-07-15T12:17:23;53098.41;;;-144.47;31.75
64076;BME280;50327;51.328;12.324;2022-07-15T12:19:51;53114.31;;;-144.47;32.32
64076;BME280;50327;51.328;12.324;2022-07-15T12:22:18;53116.28;;;-144.47;32.40
64076;BME280;50327;51.328;12.324;2022-07-15T12:24:49;53120.25;;;-144.47;32.75
64076;BME280;50327;51.328;12.324;2022-07-15T12:27:19;53122.25;;;-144.47;33.08
64076;BME280;50327;51.328;12.324;2022-07-15T12:30:01;53126.22;;;-144.47;33.05
64076;BME280;50327;51.328;12.324;2022-07-15T12:32:27;53126.22;;;-144.47;33.15
64076;BME280;50327;51.328;12.324;2022-07-15T12:34:54;53094.44;;;-144.47;33.02
64076;BME280;50327;51.328;12.324;2022-07-15T12:37:46;53163.97;;;-144.47;33.09
64076;BME280;50327;51.328;12.324;2022-07-15T12:40:12;53150.06;;;-144.47;32.51
64076;BME280;50327;51.328;12.324;2022-07-15T12:42:46;53134.16;;;-144.47;31.85
64076;BME280;50327;51.328;12.324;2022-07-15T12:48:08;53138.13;;;-144.47;30.34
64076;BME280;50327;51.328;12.324;2022-07-15T12:53:00;53118.28;;;-144.47;29.82
64076;BME280;50327;51.328;12.324;2022-07-15T12:55:31;53126.22;;;-144.47;29.99
64076;BME280;50327;51.328;12.324;2022-07-15T12:58:05;53118.28;;;-144.47;30.23
64076;BME280;50327;51.328;12.324;2022-07-15T13:00:31;53118.28;;;-144.47;30.84
64076;BME280;50327;51.328;12.324;2022-07-15T13:05:32;53106.34;;;-144.47;31.71
64076;BME280;50327;51.328;12.324;2022-07-15T13:07:58;53092.44;;;-144.47;31.32
64076;BME280;50327;51.328;12.324;2022-07-15T13:10:24;53062.66;;;-144.47;30.55
64076;BME280;50327;51.328;12.324;2022-07-15T13:12:51;53098.41;;;-144.47;29.77
64076;BME280;50327;51.328;12.324;2022-07-15T13:15:17;53086.50;;;-144.47;29.56
64076;BME280;50327;51.328;12.324;2022-07-15T13:17:42;53104.38;;;-144.47;29.37
64076;BME280;50327;51.328;12.324;2022-07-15T13:20:08;53084.50;;;-144.47;29.43
64076;BME280;50327;51.328;12.324;2022-07-15T13:22:34;53102.38;;;-144.47;30.12
64076;BME280;50327;51.328;12.324;2022-07-15T13:24:59;53086.50;;;-144.47;30.25
64076;BME280;50327;51.328;12.324;2022-07-15T13:27:25;53064.66;;;-144.47;29.13
64076;BME280;50327;51.328;12.324;2022-07-15T13:29:51;53048.75;;;-144.47;28.52